sensor_id;sensor_type;location;lat;lon;timestamp;temperature;humidity
67358;HTU21D;54240;51.096;5.878;2022-10-14T00:01:04;13.73;118.99
67358;HTU21D;54240;51.096;5.878;2022-10-14T00:03:32;13.66;118.99
67358;HTU21D;54240;51.096;5.878;2022-10-14T00:05:58;13.67;118.99
67358;HTU21D;54240;51.096;5.878;2022-10-14T00:08:25;13.69;118.99
67358;HTU21D;54240;51.096;5.878;2022-10-14T00:10:51;13.73;118.99
67358;HTU21D;54240;51.096;5.878;2022-10-14T00:13:16;13.73;118.99
67358;HTU21D;54240;51.096;5.878;2022-10-14T00:15:42;13.74;118.99
67358;HTU21D;54240;51.096;5.878;2022-10-14T00:18:09;13.76;118.99
67358;HTU21D;54240;51.096;5.878;2022-10-14T00:20:35;13.75;118.99
67358;HTU21D;54240;51.096;5.878;2022-10-14T00:23:01;13.77;118.99
67358;HTU21D;54240;51.096;5.878;2022-10-14T00:25:27;13.80;118.99
67358;HTU21D;54240;51.096;5.878;2022-10-14T00:27:54;13.82;118.99
67358;HTU21D;54240;51.096;5.878;2022-10-14T00:30:20;13.86;118.99
67358;HTU21D;54240;51.096;5.878;2022-10-14T00:32:45;13.89;118.99
67358;HTU21D;54240;51.096;5.878;2022-10-14T00:35:11;13.90;118.99
67358;HTU21D;54240;51.096;5.878;2022-10-14T00:37:37;13.93;118.99
67358;HTU21D;54240;51.096;5.878;2022-10-14T00:40:05;13.91;118.99
67358;HTU21D;54240;51.096;5.878;2022-10-14T00:42:32;13.95;118.99
67358;HTU21D;54240;51.096;5.878;2022-10-14T00:45:06;13.96;118.99
67358;HTU21D;54240;51.096;5.878;2022-10-14T00:47:34;13.97;118.99
67358;HTU21D;54240;51.096;5.878;2022-10-14T00:50:02;13.99;118.99
67358;HTU21D;54240;51.096;5.878;2022-10-14T00:52:28;14.04;118.99
67358;HTU21D;54240;51.096;5.878;2022-10-14T00:55:05;14.05;118.99
67358;HTU21D;54240;51.096;5.878;2022-10-14T00:57:34;14.07;118.99
67358;HTU21D;54240;51.096;5.878;2022-10-14T01:00:08;14.09;118.99
67358;HTU21D;54240;51.096;5.878;2022-10-14T01:02:35;14.12;118.99
67358;HTU21D;54240;51.096;5.878;2022-10-14T01:05:02;14.17;118.99
67358;HTU21D;54240;51.096;5.878;2022-10-14T01:10:29;14.22;118.99
67358;HTU21D;54240;51.096;5.878;2022-10-14T01:23:36;14.39;118.99
67358;HTU21D;54240;51.096;5.878;2022-10-14T01:31:44;14.18;118.99
67358;HTU21D;54240;51.096;5.878;2022-10-14T01:34:19;14.13;118.99
67358;HTU21D;54240;51.096;5.878;2022-10-14T01:36:59;14.12;118.99
67358;HTU21D;54240;51.096;5.878;2022-10-14T01:39:32;14.09;118.99
67358;HTU21D;54240;51.096;5.878;2022-10-14T01:42:08;14.06;118.99
67358;HTU21D;54240;51.096;5.878;2022-10-14T01:44:41;14.03;118.99
67358;HTU21D;54240;51.096;5.878;2022-10-14T01:47:12;14.00;118.99
67358;HTU21D;54240;51.096;5.878;2022-10-14T01:49:46;13.99;118.99
67358;HTU21D;54240;51.096;5.878;2022-10-14T01:52:25;14.01;118.99
67358;HTU21D;54240;51.096;5.878;2022-10-14T01:54:58;14.04;118.99
67358;HTU21D;54240;51.096;5.878;2022-10-14T01:57:30;14.09;118.99
67358;HTU21D;54240;51.096;5.878;2022-10-14T01:59:59;14.13;118.99
67358;HTU21D;54240;51.096;5.878;2022-10-14T02:02:26;14.15;118.99
67358;HTU21D;54240;51.096;5.878;2022-10-14T02:04:52;14.21;118.99
67358;HTU21D;54240;51.096;5.878;2022-10-14T02:07:25;14.24;118.99
67358;HTU21D;54240;51.096;5.878;2022-10-14T02:10:13;14.29;118.99
67358;HTU21D;54240;51.096;5.878;2022-10-14T02:21:11;14.15;118.99
67358;HTU21D;54240;51.096;5.878;2022-10-14T02:24:06;14.09;118.99
67358;HTU21D;54240;51.096;5.878;2022-10-14T02:26:37;14.07;118.99
67358;HTU21D;54240;51.096;5.878;2022-10-14T02:29:04;14.08;118.99
67358;HTU21D;54240;51.096;5.878;2022-10-14T02:31:36;14.04;118.99
67358;HTU21D;54240;51.096;5.878;2022-10-14T02:34:09;13.99;118.99
67358;HTU21D;54240;51.096;5.878;2022-10-14T02:36:36;13.96;118.99
67358;HTU21D;54240;51.096;5.878;2022-10-14T02:39:08;13.92;118.99
67358;HTU21D;54240;51.096;5.878;2022-10-14T02:41:36;13.89;118.99
67358;HTU21D;54240;51.096;5.878;2022-10-14T02:44:04;13.90;118.99
67358;HTU21D;54240;51.096;5.878;2022-10-14T02:46:31;13.91;118.99
67358;HTU21D;54240;51.096;5.878;2022-10-14T02:48:58;13.92;118.99
67358;HTU21D;54240;51.096;5.878;2022-10-14T02:51:24;13.94;118.99
67358;HTU21D;54240;51.096;5.878;2022-10-14T02:53:50;13.95;118.99
67358;HTU21D;54240;51.096;5.878;2022-10-14T02:56:17;13.97;118.99
67358;HTU21D;54240;51.096;5.878;2022-10-14T02:58:43;14.00;118.99
67358;HTU21D;54240;51.096;5.878;2022-10-14T03:01:09;14.00;118.99
67358;HTU21D;54240;51.096;5.878;2022-10-14T03:03:35;13.97;118.99
67358;HTU21D;54240;51.096;5.878;2022-10-14T03:06:02;13.95;118.99
67358;HTU21D;54240;51.096;5.878;2022-10-14T03:08:28;13.95;118.99
67358;HTU21D;54240;51.096;5.878;2022-10-14T03:10:57;13.95;118.99
67358;HTU21D;54240;51.096;5.878;2022-10-14T03:13:24;13.96;118.99
67358;HTU21D;54240;51.096;5.878;2022-10-14T03:15:50;13.96;118.99
67358;HTU21D;54240;51.096;5.878;2022-10-14T03:18:18;13.95;118.99
67358;HTU21D;54240;51.096;5.878;2022-10-14T03:20:46;13.92;118.99
67358;HTU21D;54240;51.096;5.878;2022-10-14T03:23:17;13.90;118.99
67358;HTU21D;54240;51.096;5.878;2022-10-14T03:25:46;13.91;118.99
67358;HTU21D;54240;51.096;5.878;2022-10-14T03:28:20;13.92;118.99
67358;HTU21D;54240;51.096;5.878;2022-10-14T03:30:54;13.93;118.99
67358;HTU21D;54240;51.096;5.878;2022-10-14T03:33:38;13.96;118.99
67358;HTU21D;54240;51.096;5.878;2022-10-14T03:36:09;13.99;118.99
67358;HTU21D;54240;51.096;5.878;2022-10-14T03:38:44;13.98;118.99
67358;HTU21D;54240;51.096;5.878;2022-10-14T03:41:20;13.98;118.99
67358;HTU21D;54240;51.096;5.878;2022-10-14T03:43:46;13.99;118.99
67358;HTU21D;54240;51.096;5.878;2022-10-14T03:46:13;13.99;118.99
67358;HTU21D;54240;51.096;5.878;2022-10-14T03:48:38;13.96;118.99
67358;HTU21D;54240;51.096;5.878;2022-10-14T03:51:06;13.96;118.99
67358;HTU21D;54240;51.096;5.878;2022-10-14T03:53:33;13.96;118.99
67358;HTU21D;54240;51.096;5.878;2022-10-14T03:55:59;13.95;118.99
67358;HTU21D;54240;51.096;5.878;2022-10-14T03:58:25;13.97;118.99
67358;HTU21D;54240;51.096;5.878;2022-10-14T04:00:57;13.95;118.99
67358;HTU21D;54240;51.096;5.878;2022-10-14T04:03:34;13.93;118.99
67358;HTU21D;54240;51.096;5.878;2022-10-14T04:06:00;13.91;118.99
67358;HTU21D;54240;51.096;5.878;2022-10-14T04:08:28;13.93;118.99
67358;HTU21D;54240;51.096;5.878;2022-10-14T04:11:01;13.95;118.99
67358;HTU21D;54240;51.096;5.878;2022-10-14T04:13:31;13.96;118.99
67358;HTU21D;54240;51.096;5.878;2022-10-14T04:16:05;13.97;118.99
67358;HTU21D;54240;51.096;5.878;2022-10-14T04:18:52;13.99;118.99
67358;HTU21D;54240;51.096;5.878;2022-10-14T04:21:20;13.99;118.99
67358;HTU21D;54240;51.096;5.878;2022-10-14T04:23:49;13.98;118.99
67358;HTU21D;54240;51.096;5.878;2022-10-14T04:26:16;13.98;118.99
67358;HTU21D;54240;51.096;5.878;2022-10-14T04:28:45;14.00;118.99
67358;HTU21D;54240;51.096;5.878;2022-10-14T04:31:14;14.03;118.99
67358;HTU21D;54240;51.096;5.878;2022-10-14T04:33:49;14.05;118.99
67358;HTU21D;54240;51.096;5.878;2022-10-14T04:36:21;14.11;118.99
67358;HTU21D;54240;51.096;5.878;2022-10-14T04:38:48;14.17;118.99
67358;HTU21D;54240;51.096;5.878;2022-10-14T04:41:14;14.19;118.99
67358;HTU21D;54240;51.096;5.878;2022-10-14T04:43:45;14.21;118.99
67358;HTU21D;54240;51.096;5.878;2022-10-14T04:46:37;14.20;118.99
67358;HTU21D;54240;51.096;5.878;2022-10-14T04:49:03;14.22;118.99
67358;HTU21D;54240;51.096;5.878;2022-10-14T04:51:35;14.22;118.99
67358;HTU21D;54240;51.096;5.878;2022-10-14T04:54:00;14.23;118.99
67358;HTU21D;54240;51.096;5.878;2022-10-14T04:56:46;14.24;118.99
67358;HTU21D;54240;51.096;5.878;2022-10-14T04:59:13;14.25;118.99
67358;HTU21D;54240;51.096;5.878;2022-10-14T05:02:02;14.23;118.99
67358;HTU21D;54240;51.096;5.878;2022-10-14T05:04:39;14.18;118.99
67358;HTU21D;54240;51.096;5.878;2022-10-14T05:07:06;14.15;118.99
67358;HTU21D;54240;51.096;5.878;2022-10-14T05:09:32;14.13;118.99
67358;HTU21D;54240;51.096;5.878;2022-10-14T05:11:58;14.13;118.99
67358;HTU21D;54240;51.096;5.878;2022-10-14T05:14:33;14.12;118.99
67358;HTU21D;54240;51.096;5.878;2022-10-14T05:17:11;14.11;118.99
67358;HTU21D;54240;51.096;5.878;2022-10-14T05:19:36;14.10;118.99
67358;HTU21D;54240;51.096;5.878;2022-10-14T05:22:02;14.09;118.99
67358;HTU21D;54240;51.096;5.878;2022-10-14T05:24:39;14.09;118.99
67358;HTU21D;54240;51.096;5.878;2022-10-14T05:27:06;14.09;118.99
67358;HTU21D;54240;51.096;5.878;2022-10-14T05:29:33;14.08;118.99
67358;HTU21D;54240;51.096;5.878;2022-10-14T05:31:59;14.05;118.99
67358;HTU21D;54240;51.096;5.878;2022-10-14T05:34:40;14.00;118.99
67358;HTU21D;54240;51.096;5.878;2022-10-14T05:37:09;13.96;118.99
67358;HTU21D;54240;51.096;5.878;2022-10-14T05:39:46;13.92;118.99
67358;HTU21D;54240;51.096;5.878;2022-10-14T05:42:13;13.88;118.99
67358;HTU21D;54240;51.096;5.878;2022-10-14T05:44:41;13.85;118.99
67358;HTU21D;54240;51.096;5.878;2022-10-14T05:47:07;13.81;118.99
67358;HTU21D;54240;51.096;5.878;2022-10-14T05:49:35;13.78;118.99
67358;HTU21D;54240;51.096;5.878;2022-10-14T05:52:03;13.77;118.99
67358;HTU21D;54240;51.096;5.878;2022-10-14T05:54:31;13.77;118.99
67358;HTU21D;54240;51.096;5.878;2022-10-14T05:56:57;13.74;118.99
67358;HTU21D;54240;51.096;5.878;2022-10-14T05:59:24;13.70;118.99
67358;HTU21D;54240;51.096;5.878;2022-10-14T06:01:51;13.65;118.99
67358;HTU21D;54240;51.096;5.878;2022-10-14T06:04:19;13.61;118.99
67358;HTU21D;54240;51.096;5.878;2022-10-14T06:06:45;13.59;118.99
67358;HTU21D;54240;51.096;5.878;2022-10-14T06:09:13;13.59;118.99
67358;HTU21D;54240;51.096;5.878;2022-10-14T06:11:39;13.59;118.99
67358;HTU21D;54240;51.096;5.878;2022-10-14T06:14:06;13.59;118.99
67358;HTU21D;54240;51.096;5.878;2022-10-14T06:16:32;13.56;118.99
67358;HTU21D;54240;51.096;5.878;2022-10-14T06:19:01;13.55;118.99
67358;HTU21D;54240;51.096;5.878;2022-10-14T06:21:27;13.59;118.99
67358;HTU21D;54240;51.096;5.878;2022-10-14T06:23:53;13.55;118.99
67358;HTU21D;54240;51.096;5.878;2022-10-14T06:26:19;13.54;118.99
67358;HTU21D;54240;51.096;5.878;2022-10-14T06:28:45;13.55;118.99
67358;HTU21D;54240;51.096;5.878;2022-10-14T06:31:11;13.61;118.99
67358;HTU21D;54240;51.096;5.878;2022-10-14T06:33:37;13.60;118.99
67358;HTU21D;54240;51.096;5.878;2022-10-14T06:36:04;13.64;118.99
67358;HTU21D;54240;51.096;5.878;2022-10-14T06:38:31;13.65;118.99
67358;HTU21D;54240;51.096;5.878;2022-10-14T06:40:57;13.69;118.99
67358;HTU21D;54240;51.096;5.878;2022-10-14T06:43:23;13.73;118.99
67358;HTU21D;54240;51.096;5.878;2022-10-14T06:45:49;13.77;118.99
67358;HTU21D;54240;51.096;5.878;2022-10-14T06:48:15;13.77;118.99
67358;HTU21D;54240;51.096;5.878;2022-10-14T06:50:41;13.77;118.99
67358;HTU21D;54240;51.096;5.878;2022-10-14T06:53:07;13.77;118.99
67358;HTU21D;54240;51.096;5.878;2022-10-14T06:55:33;13.77;118.99
67358;HTU21D;54240;51.096;5.878;2022-10-14T06:57:59;13.80;118.99
67358;HTU21D;54240;51.096;5.878;2022-10-14T07:00:25;13.88;118.99
67358;HTU21D;54240;51.096;5.878;2022-10-14T07:02:51;13.89;118.99
67358;HTU21D;54240;51.096;5.878;2022-10-14T07:05:17;13.96;118.99
67358;HTU21D;54240;51.096;5.878;2022-10-14T07:07:43;14.03;118.99
67358;HTU21D;54240;51.096;5.878;2022-10-14T07:10:09;14.03;118.99
67358;HTU21D;54240;51.096;5.878;2022-10-14T07:12:35;14.07;118.99
67358;HTU21D;54240;51.096;5.878;2022-10-14T07:15:01;14.09;118.99
67358;HTU21D;54240;51.096;5.878;2022-10-14T07:17:26;14.18;118.99
67358;HTU21D;54240;51.096;5.878;2022-10-14T07:19:52;14.25;118.99
67358;HTU21D;54240;51.096;5.878;2022-10-14T07:22:18;14.28;118.99
67358;HTU21D;54240;51.096;5.878;2022-10-14T07:24:44;14.32;118.99
67358;HTU21D;54240;51.096;5.878;2022-10-14T07:27:10;14.34;118.99
67358;HTU21D;54240;51.096;5.878;2022-10-14T07:29:36;14.41;118.99
67358;HTU21D;54240;51.096;5.878;2022-10-14T07:32:02;14.43;118.99
67358;HTU21D;54240;51.096;5.878;2022-10-14T07:34:28;14.48;118.99
67358;HTU21D;54240;51.096;5.878;2022-10-14T07:36:54;14.50;118.99
67358;HTU21D;54240;51.096;5.878;2022-10-14T07:39:19;14.49;118.99
67358;HTU21D;54240;51.096;5.878;2022-10-14T07:41:45;14.48;118.99
67358;HTU21D;54240;51.096;5.878;2022-10-14T07:44:11;14.45;118.99
67358;HTU21D;54240;51.096;5.878;2022-10-14T07:46:41;14.45;118.99
67358;HTU21D;54240;51.096;5.878;2022-10-14T07:49:11;14.52;118.99
67358;HTU21D;54240;51.096;5.878;2022-10-14T07:51:37;14.53;118.99
67358;HTU21D;54240;51.096;5.878;2022-10-14T07:54:05;14.57;118.99
67358;HTU21D;54240;51.096;5.878;2022-10-14T07:56:35;14.63;118.99
67358;HTU21D;54240;51.096;5.878;2022-10-14T07:59:02;14.68;118.99
67358;HTU21D;54240;51.096;5.878;2022-10-14T08:01:28;14.74;118.99
67358;HTU21D;54240;51.096;5.878;2022-10-14T08:03:53;14.77;118.99
67358;HTU21D;54240;51.096;5.878;2022-10-14T08:06:19;14.77;118.99
67358;HTU21D;54240;51.096;5.878;2022-10-14T08:08:46;14.78;118.99
67358;HTU21D;54240;51.096;5.878;2022-10-14T08:11:14;14.80;118.99
67358;HTU21D;54240;51.096;5.878;2022-10-14T08:13:41;14.83;118.99
67358;HTU21D;54240;51.096;5.878;2022-10-14T08:16:16;14.85;118.99
67358;HTU21D;54240;51.096;5.878;2022-10-14T08:18:43;14.88;118.99
67358;HTU21D;54240;51.096;5.878;2022-10-14T08:21:09;14.94;118.99
67358;HTU21D;54240;51.096;5.878;2022-10-14T08:23:35;15.02;118.99
67358;HTU21D;54240;51.096;5.878;2022-10-14T08:26:01;15.10;118.99
67358;HTU21D;54240;51.096;5.878;2022-10-14T08:28:26;15.12;118.99
67358;HTU21D;54240;51.096;5.878;2022-10-14T08:30:52;15.13;118.99
67358;HTU21D;54240;51.096;5.878;2022-10-14T08:33:18;15.10;118.99
67358;HTU21D;54240;51.096;5.878;2022-10-14T08:35:44;15.16;118.99
67358;HTU21D;54240;51.096;5.878;2022-10-14T08:38:10;15.18;118.99
67358;HTU21D;54240;51.096;5.878;2022-10-14T08:40:52;15.24;118.99
67358;HTU21D;54240;51.096;5.878;2022-10-14T08:43:36;15.23;118.99
67358;HTU21D;54240;51.096;5.878;2022-10-14T08:46:32;15.16;118.99
67358;HTU21D;54240;51.096;5.878;2022-10-14T08:49:21;15.08;118.99
67358;HTU21D;54240;51.096;5.878;2022-10-14T08:52:00;15.03;118.99
67358;HTU21D;54240;51.096;5.878;2022-10-14T08:54:37;15.03;118.99
67358;HTU21D;54240;51.096;5.878;2022-10-14T08:57:05;15.04;118.99
67358;HTU21D;54240;51.096;5.878;2022-10-14T08:59:39;15.06;118.99
67358;HTU21D;54240;51.096;5.878;2022-10-14T09:02:36;15.09;118.99
67358;HTU21D;54240;51.096;5.878;2022-10-14T09:05:05;15.16;118.99
67358;HTU21D;54240;51.096;5.878;2022-10-14T09:07:33;15.22;118.99
67358;HTU21D;54240;51.096;5.878;2022-10-14T09:10:06;15.29;118.99
67358;HTU21D;54240;51.096;5.878;2022-10-14T09:12:38;15.43;118.99
67358;HTU21D;54240;51.096;5.878;2022-10-14T09:15:29;15.56;118.99
67358;HTU21D;54240;51.096;5.878;2022-10-14T09:18:20;15.70;118.99
67358;HTU21D;54240;51.096;5.878;2022-10-14T09:20:47;15.80;118.99
67358;HTU21D;54240;51.096;5.878;2022-10-14T09:23:17;15.86;118.99
67358;HTU21D;54240;51.096;5.878;2022-10-14T09:25:58;15.86;118.99
67358;HTU21D;54240;51.096;5.878;2022-10-14T09:28:38;15.87;118.99
67358;HTU21D;54240;51.096;5.878;2022-10-14T09:31:09;15.84;118.99
67358;HTU21D;54240;51.096;5.878;2022-10-14T09:33:35;15.80;118.99
67358;HTU21D;54240;51.096;5.878;2022-10-14T09:36:09;15.75;118.99
67358;HTU21D;54240;51.096;5.878;2022-10-14T09:38:39;15.63;118.99
67358;HTU21D;54240;51.096;5.878;2022-10-14T09:41:11;15.49;118.99
67358;HTU21D;54240;51.096;5.878;2022-10-14T09:46:58;15.26;118.99
67358;HTU21D;54240;51.096;5.878;2022-10-14T09:52:07;15.12;118.99
67358;HTU21D;54240;51.096;5.878;2022-10-14T09:54:34;15.02;118.99
67358;HTU21D;54240;51.096;5.878;2022-10-14T09:57:04;15.03;118.99
67358;HTU21D;54240;51.096;5.878;2022-10-14T09:59:32;15.04;118.99
67358;HTU21D;54240;51.096;5.878;2022-10-14T10:02:02;15.02;118.99
67358;HTU21D;54240;51.096;5.878;2022-10-14T10:06:57;15.09;118.99
67358;HTU21D;54240;51.096;5.878;2022-10-14T10:09:25;15.11;118.99
67358;HTU21D;54240;51.096;5.878;2022-10-14T10:11:51;15.09;118.99
67358;HTU21D;54240;51.096;5.878;2022-10-14T10:14:25;15.11;118.99
67358;HTU21D;54240;51.096;5.878;2022-10-14T10:17:12;15.25;118.99
67358;HTU21D;54240;51.096;5.878;2022-10-14T10:19:47;15.33;118.99
67358;HTU21D;54240;51.096;5.878;2022-10-14T10:22:20;15.34;118.99
67358;HTU21D;54240;51.096;5.878;2022-10-14T10:25:35;15.36;118.99
67358;HTU21D;54240;51.096;5.878;2022-10-14T10:27:44;15.32;118.99
67358;HTU21D;54240;51.096;5.878;2022-10-14T10:38:21;15.28;118.99
67358;HTU21D;54240;51.096;5.878;2022-10-14T10:44:07;15.26;118.99
67358;HTU21D;54240;51.096;5.878;2022-10-14T10:52:47;15.30;118.99
67358;HTU21D;54240;51.096;5.878;2022-10-14T10:55:40;15.29;118.99
67358;HTU21D;54240;51.096;5.878;2022-10-14T11:01:35;15.32;118.99
67358;HTU21D;54240;51.096;5.878;2022-10-14T11:04:28;15.42;118.99
67358;HTU21D;54240;51.096;5.878;2022-10-14T11:15:40;15.68;118.99
67358;HTU21D;54240;51.096;5.878;2022-10-14T11:24:12;15.81;118.99
67358;HTU21D;54240;51.096;5.878;2022-10-14T11:26:57;15.82;118.99
67358;HTU21D;54240;51.096;5.878;2022-10-14T11:35:07;15.97;118.99
67358;HTU21D;54240;51.096;5.878;2022-10-14T11:40:49;16.01;118.99
67358;HTU21D;54240;51.096;5.878;2022-10-14T11:46:10;16.00;118.99
67358;HTU21D;54240;51.096;5.878;2022-10-14T11:49:44;15.95;118.99
67358;HTU21D;54240;51.096;5.878;2022-10-14T11:51:59;15.96;118.99
67358;HTU21D;54240;51.096;5.878;2022-10-14T11:54:51;15.91;118.99
67358;HTU21D;54240;51.096;5.878;2022-10-14T11:57:36;16.02;118.99
67358;HTU21D;54240;51.096;5.878;2022-10-14T12:00:12;16.12;118.99
67358;HTU21D;54240;51.096;5.878;2022-10-14T12:06:10;16.15;118.99
67358;HTU21D;54240;51.096;5.878;2022-10-14T12:08:55;16.26;118.99
67358;HTU21D;54240;51.096;5.878;2022-10-14T12:11:32;16.36;118.99
67358;HTU21D;54240;51.096;5.878;2022-10-14T12:14:13;16.45;118.99
67358;HTU21D;54240;51.096;5.878;2022-10-14T12:16:45;16.55;118.99
67358;HTU21D;54240;51.096;5.878;2022-10-14T12:19:21;16.64;118.99
67358;HTU21D;54240;51.096;5.878;2022-10-14T12:24:35;16.77;118.99
67358;HTU21D;54240;51.096;5.878;2022-10-14T12:27:11;16.72;118.99
67358;HTU21D;54240;51.096;5.878;2022-10-14T12:29:47;16.77;118.99
67358;HTU21D;54240;51.096;5.878;2022-10-14T12:32:21;16.86;118.99
67358;HTU21D;54240;51.096;5.878;2022-10-14T12:34:53;16.89;118.99
67358;HTU21D;54240;51.096;5.878;2022-10-14T12:42:35;17.21;118.99
67358;HTU21D;54240;51.096;5.878;2022-10-14T12:45:22;17.38;118.99
67358;HTU21D;54240;51.096;5.878;2022-10-14T12:48:16;17.38;118.99
67358;HTU21D;54240;51.096;5.878;2022-10-14T12:50:48;17.40;118.99
67358;HTU21D;54240;51.096;5.878;2022-10-14T12:53:28;17.17;118.99
67358;HTU21D;54240;51.096;5.878;2022-10-14T12:55:58;17.10;118.99
67358;HTU21D;54240;51.096;5.878;2022-10-14T12:58:36;16.92;118.99
67358;HTU21D;54240;51.096;5.878;2022-10-14T13:01:16;16.84;118.99
67358;HTU21D;54240;51.096;5.878;2022-10-14T13:03:52;16.59;118.99
67358;HTU21D;54240;51.096;5.878;2022-10-14T13:07:11;16.69;118.99
67358;HTU21D;54240;51.096;5.878;2022-10-14T13:09:33;16.69;118.99
67358;HTU21D;54240;51.096;5.878;2022-10-14T13:14:27;16.84;118.99
67358;HTU21D;54240;51.096;5.878;2022-10-14T13:16:59;16.82;118.99
67358;HTU21D;54240;51.096;5.878;2022-10-14T13:22:02;16.82;118.99
67358;HTU21D;54240;51.096;5.878;2022-10-14T13:24:37;16.80;118.99
67358;HTU21D;54240;51.096;5.878;2022-10-14T13:30:02;17.01;118.99
67358;HTU21D;54240;51.096;5.878;2022-10-14T13:32:45;16.94;118.99
67358;HTU21D;54240;51.096;5.878;2022-10-14T13:35:31;16.91;118.99
67358;HTU21D;54240;51.096;5.878;2022-10-14T13:38:05;16.88;118.99
67358;HTU21D;54240;51.096;5.878;2022-10-14T13:40:35;16.88;118.99
67358;HTU21D;54240;51.096;5.878;2022-10-14T13:46:06;16.87;118.99
67358;HTU21D;54240;51.096;5.878;2022-10-14T13:48:39;16.90;118.99
67358;HTU21D;54240;51.096;5.878;2022-10-14T13:51:24;16.80;118.99
67358;HTU21D;54240;51.096;5.878;2022-10-14T13:53:59;16.61;118.99
67358;HTU21D;54240;51.096;5.878;2022-10-14T13:56:33;16.63;118.99
67358;HTU21D;54240;51.096;5.878;2022-10-14T13:58:59;16.59;118.99
67358;HTU21D;54240;51.096;5.878;2022-10-14T14:01:33;16.58;118.99
67358;HTU21D;54240;51.096;5.878;2022-10-14T14:04:01;16.67;118.99
67358;HTU21D;54240;51.096;5.878;2022-10-14T14:06:27;16.76;118.99
67358;HTU21D;54240;51.096;5.878;2022-10-14T14:09:00;16.73;118.99
67358;HTU21D;54240;51.096;5.878;2022-10-14T14:11:46;16.81;118.99
67358;HTU21D;54240;51.096;5.878;2022-10-14T14:14:23;16.94;118.99
67358;HTU21D;54240;51.096;5.878;2022-10-14T14:16:57;17.00;118.99
67358;HTU21D;54240;51.096;5.878;2022-10-14T14:19:29;17.09;118.99
67358;HTU21D;54240;51.096;5.878;2022-10-14T14:24:48;17.07;118.99
67358;HTU21D;54240;51.096;5.878;2022-10-14T14:27:20;17.05;118.99
67358;HTU21D;54240;51.096;5.878;2022-10-14T14:29:50;17.14;118.99
67358;HTU21D;54240;51.096;5.878;2022-10-14T14:32:30;17.15;118.99
67358;HTU21D;54240;51.096;5.878;2022-10-14T14:34:57;17.17;118.99
67358;HTU21D;54240;51.096;5.878;2022-10-14T14:37:25;17.18;118.99
67358;HTU21D;54240;51.096;5.878;2022-10-14T14:42:24;17.20;118.99
67358;HTU21D;54240;51.096;5.878;2022-10-14T14:44:54;17.28;118.99
67358;HTU21D;54240;51.096;5.878;2022-10-14T14:47:24;17.33;118.99
67358;HTU21D;54240;51.096;5.878;2022-10-14T14:49:52;17.38;118.99
67358;HTU21D;54240;51.096;5.878;2022-10-14T14:52:18;17.39;118.99
67358;HTU21D;54240;51.096;5.878;2022-10-14T14:54:46;17.41;118.99
67358;HTU21D;54240;51.096;5.878;2022-10-14T14:57:18;17.46;118.99
67358;HTU21D;54240;51.096;5.878;2022-10-14T15:02:23;17.41;118.99
67358;HTU21D;54240;51.096;5.878;2022-10-14T15:05:09;17.46;118.99
67358;HTU21D;54240;51.096;5.878;2022-10-14T15:07:36;17.48;118.99
67358;HTU21D;54240;51.096;5.878;2022-10-14T15:10:07;17.41;118.99
67358;HTU21D;54240;51.096;5.878;2022-10-14T15:12:36;17.35;118.99
67358;HTU21D;54240;51.096;5.878;2022-10-14T15:15:29;17.31;118.99
67358;HTU21D;54240;51.096;5.878;2022-10-14T15:20:41;17.18;118.99
67358;HTU21D;54240;51.096;5.878;2022-10-14T15:23:37;17.17;118.99
67358;HTU21D;54240;51.096;5.878;2022-10-14T15:26:29;17.23;118.99
67358;HTU21D;54240;51.096;5.878;2022-10-14T15:29:18;17.30;118.99
67358;HTU21D;54240;51.096;5.878;2022-10-14T15:32:01;17.36;118.99
67358;HTU21D;54240;51.096;5.878;2022-10-14T15:34:28;17.29;118.99
67358;HTU21D;54240;51.096;5.878;2022-10-14T15:36:54;17.28;118.99
67358;HTU21D;54240;51.096;5.878;2022-10-14T15:39:20;17.21;118.99
67358;HTU21D;54240;51.096;5.878;2022-10-14T15:41:47;17.25;118.99
67358;HTU21D;54240;51.096;5.878;2022-10-14T15:44:13;17.25;118.99
67358;HTU21D;54240;51.096;5.878;2022-10-14T15:46:42;17.23;118.99
67358;HTU21D;54240;51.096;5.878;2022-10-14T15:49:32;17.26;118.99
67358;HTU21D;54240;51.096;5.878;2022-10-14T15:51:57;17.21;118.99
67358;HTU21D;54240;51.096;5.878;2022-10-14T15:54:23;17.19;118.99
67358;HTU21D;54240;51.096;5.878;2022-10-14T15:56:53;17.22;118.99
67358;HTU21D;54240;51.096;5.878;2022-10-14T15:59:19;17.16;118.99
67358;HTU21D;54240;51.096;5.878;2022-10-14T16:01:46;17.15;118.99
67358;HTU21D;54240;51.096;5.878;2022-10-14T16:04:19;17.19;118.99
67358;HTU21D;54240;51.096;5.878;2022-10-14T16:06:48;17.22;118.99
67358;HTU21D;54240;51.096;5.878;2022-10-14T16:09:14;17.20;118.99
67358;HTU21D;54240;51.096;5.878;2022-10-14T16:11:40;17.15;118.99
67358;HTU21D;54240;51.096;5.878;2022-10-14T16:14:08;17.15;118.99
67358;HTU21D;54240;51.096;5.878;2022-10-14T16:16:44;17.11;118.99
67358;HTU21D;54240;51.096;5.878;2022-10-14T16:19:11;17.09;118.99
67358;HTU21D;54240;51.096;5.878;2022-10-14T16:21:37;17.07;118.99
67358;HTU21D;54240;51.096;5.878;2022-10-14T16:24:04;17.03;118.99
67358;HTU21D;54240;51.096;5.878;2022-10-14T16:26:30;16.98;118.99
67358;HTU21D;54240;51.096;5.878;2022-10-14T16:28:57;16.94;118.99
67358;HTU21D;54240;51.096;5.878;2022-10-14T16:31:25;16.93;118.99
67358;HTU21D;54240;51.096;5.878;2022-10-14T16:33:52;16.90;118.99
67358;HTU21D;54240;51.096;5.878;2022-10-14T16:36:22;16.88;118.99
67358;HTU21D;54240;51.096;5.878;2022-10-14T16:38:49;16.85;118.99
67358;HTU21D;54240;51.096;5.878;2022-10-14T16:41:15;16.80;118.99
67358;HTU21D;54240;51.096;5.878;2022-10-14T16:43:41;16.74;118.99
67358;HTU21D;54240;51.096;5.878;2022-10-14T16:46:07;16.67;118.99
67358;HTU21D;54240;51.096;5.878;2022-10-14T16:48:33;16.61;118.99
67358;HTU21D;54240;51.096;5.878;2022-10-14T16:51:00;16.57;118.99
67358;HTU21D;54240;51.096;5.878;2022-10-14T16:53:29;16.50;118.99
67358;HTU21D;54240;51.096;5.878;2022-10-14T16:56:10;16.42;118.99
67358;HTU21D;54240;51.096;5.878;2022-10-14T16:58:55;16.35;118.99
67358;HTU21D;54240;51.096;5.878;2022-10-14T17:01:22;16.29;118.99
67358;HTU21D;54240;51.096;5.878;2022-10-14T17:03:48;16.27;118.99
67358;HTU21D;54240;51.096;5.878;2022-10-14T17:06:14;16.21;118.99
67358;HTU21D;54240;51.096;5.878;2022-10-14T17:08:40;16.18;118.99
67358;HTU21D;54240;51.096;5.878;2022-10-14T17:11:10;16.18;118.99
67358;HTU21D;54240;51.096;5.878;2022-10-14T17:13:36;16.19;118.99
67358;HTU21D;54240;51.096;5.878;2022-10-14T17:16:04;16.21;118.99
67358;HTU21D;54240;51.096;5.878;2022-10-14T17:18:31;16.21;118.99
67358;HTU21D;54240;51.096;5.878;2022-10-14T17:21:06;16.21;118.99
67358;HTU21D;54240;51.096;5.878;2022-10-14T17:23:37;16.22;118.99